sensor_id;sensor_type;location;lat;lon;timestamp;pressure;altitude;pressure_sealevel;temperature;humidity
63405;BME280;49541;57.840;12.306;2023-02-11T00:01:58;100219.22;;;7.27;98.58
63405;BME280;49541;57.840;12.306;2023-02-11T00:06:59;100204.41;;;7.25;98.38
63405;BME280;49541;57.840;12.306;2023-02-11T00:12:01;100196.34;;;7.15;99.07
63405;BME280;49541;57.840;12.306;2023-02-11T00:17:01;100212.72;;;7.20;98.91
63405;BME280;49541;57.840;12.306;2023-02-11T00:22:01;100186.47;;;7.28;98.68
63405;BME280;49541;57.840;12.306;2023-02-11T00:27:01;100205.13;;;7.38;97.33
63405;BME280;49541;57.840;12.306;2023-02-11T00:32:02;100145.19;;;7.26;97.59
63405;BME280;49541;57.840;12.306;2023-02-11T00:37:04;100171.06;;;7.22;97.93
63405;BME280;49541;57.840;12.306;2023-02-11T00:42:04;100182.16;;;7.27;97.48
63405;BME280;49541;57.840;12.306;2023-02-11T00:47:04;100176.88;;;7.27;97.61
63405;BME280;49541;57.840;12.306;2023-02-11T00:52:05;100170.59;;;7.28;97.15
63405;BME280;49541;57.840;12.306;2023-02-11T00:57:05;100141.22;;;7.31;96.84
63405;BME280;49541;57.840;12.306;2023-02-11T01:02:05;100161.47;;;7.21;97.45
63405;BME280;49541;57.840;12.306;2023-02-11T01:07:05;100164.69;;;7.25;97.37
63405;BME280;49541;57.840;12.306;2023-02-11T01:12:05;100153.97;;;7.26;96.77
63405;BME280;49541;57.840;12.306;2023-02-11T01:17:05;100169.03;;;7.26;96.84
63405;BME280;49541;57.840;12.306;2023-02-11T01:22:06;100184.81;;;7.27;96.50
63405;BME280;49541;57.840;12.306;2023-02-11T01:27:06;100204.19;;;7.28;96.51
63405;BME280;49541;57.840;12.306;2023-02-11T01:32:06;100186.25;;;7.31;96.54
63405;BME280;49541;57.840;12.306;2023-02-11T01:37:06;100161.47;;;7.21;97.04
63405;BME280;49541;57.840;12.306;2023-02-11T01:42:06;100133.53;;;7.17;96.83
63405;BME280;49541;57.840;12.306;2023-02-11T01:47:07;100151.56;;;7.12;96.91
63405;BME280;49541;57.840;12.306;2023-02-11T01:52:08;100133.91;;;7.12;97.03
63405;BME280;49541;57.840;12.306;2023-02-11T01:57:13;100144.47;;;7.01;97.05
63405;BME280;49541;57.840;12.306;2023-02-11T02:02:33;100122.25;;;7.04;96.97
63405;BME280;49541;57.840;12.306;2023-02-11T02:07:39;100113.81;;;6.98;97.41
63405;BME280;49541;57.840;12.306;2023-02-11T02:12:40;100118.84;;;6.90;97.68
63405;BME280;49541;57.840;12.306;2023-02-11T02:17:43;100092.16;;;6.93;97.75
63405;BME280;49541;57.840;12.306;2023-02-11T02:27:55;100083.97;;;6.96;97.80
63405;BME280;49541;57.840;12.306;2023-02-11T02:33:12;100103.47;;;6.95;97.50
63405;BME280;49541;57.840;12.306;2023-02-11T02:38:29;100050.53;;;6.95;97.37
63405;BME280;49541;57.840;12.306;2023-02-11T02:43:30;100026.22;;;6.90;97.69
63405;BME280;49541;57.840;12.306;2023-02-11T02:48:32;100054.03;;;6.96;97.48
63405;BME280;49541;57.840;12.306;2023-02-11T02:53:48;100026.84;;;6.94;97.79
63405;BME280;49541;57.840;12.306;2023-02-11T03:09:23;100070.00;;;6.94;98.33
63405;BME280;49541;57.840;12.306;2023-02-11T03:14:25;100087.34;;;6.98;98.10
63405;BME280;49541;57.840;12.306;2023-02-11T03:19:28;100090.72;;;7.01;97.86
63405;BME280;49541;57.840;12.306;2023-02-11T03:24:33;100106.59;;;7.01;98.05
63405;BME280;49541;57.840;12.306;2023-02-11T03:29:35;100089.03;;;7.00;97.57
63405;BME280;49541;57.840;12.306;2023-02-11T03:39:49;100122.84;;;7.18;96.12
63405;BME280;49541;57.840;12.306;2023-02-11T03:44:52;100112.09;;;7.20;95.82
63405;BME280;49541;57.840;12.306;2023-02-11T03:49:55;100111.63;;;7.15;95.84
63405;BME280;49541;57.840;12.306;2023-02-11T03:54:57;100084.69;;;7.10;96.40
63405;BME280;49541;57.840;12.306;2023-02-11T03:59:58;100053.28;;;7.05;96.30
63405;BME280;49541;57.840;12.306;2023-02-11T04:04:59;100015.00;;;7.09;96.07
63405;BME280;49541;57.840;12.306;2023-02-11T04:09:59;100112.97;;;7.21;95.76
63405;BME280;49541;57.840;12.306;2023-02-11T04:15:00;100125.34;;;7.20;95.58
63405;BME280;49541;57.840;12.306;2023-02-11T04:20:00;100080.31;;;7.20;94.48
63405;BME280;49541;57.840;12.306;2023-02-11T04:25:00;100060.50;;;7.14;94.54
63405;BME280;49541;57.840;12.306;2023-02-11T04:30:00;100089.81;;;7.23;94.20
63405;BME280;49541;57.840;12.306;2023-02-11T04:35:01;100117.16;;;7.23;94.01
63405;BME280;49541;57.840;12.306;2023-02-11T04:40:02;100097.66;;;7.24;93.71
63405;BME280;49541;57.840;12.306;2023-02-11T04:45:02;100135.56;;;7.25;93.67
63405;BME280;49541;57.840;12.306;2023-02-11T04:50:03;100133.06;;;7.23;92.94
63405;BME280;49541;57.840;12.306;2023-02-11T04:55:03;100153.38;;;7.23;92.69
63405;BME280;49541;57.840;12.306;2023-02-11T05:00:04;100176.84;;;7.16;93.05
63405;BME280;49541;57.840;12.306;2023-02-11T05:05:07;100184.31;;;7.22;92.06
63405;BME280;49541;57.840;12.306;2023-02-11T05:10:08;100201.91;;;7.23;91.77
63405;BME280;49541;57.840;12.306;2023-02-11T05:15:08;100226.44;;;7.36;90.60
63405;BME280;49541;57.840;12.306;2023-02-11T05:20:08;100239.31;;;7.30;90.04
63405;BME280;49541;57.840;12.306;2023-02-11T05:25:09;100244.13;;;7.25;89.96
63405;BME280;49541;57.840;12.306;2023-02-11T05:30:09;100233.66;;;7.12;90.08
63405;BME280;49541;57.840;12.306;2023-02-11T05:35:10;100217.41;;;6.94;91.00
63405;BME280;49541;57.840;12.306;2023-02-11T05:40:10;100215.09;;;6.89;90.80
63405;BME280;49541;57.840;12.306;2023-02-11T05:45:10;100220.50;;;6.76;90.95
63405;BME280;49541;57.840;12.306;2023-02-11T05:50:10;100234.31;;;6.69;91.38
63405;BME280;49541;57.840;12.306;2023-02-11T05:55:10;100247.03;;;6.64;91.50
63405;BME280;49541;57.840;12.306;2023-02-11T06:00:11;100252.81;;;6.69;91.08
63405;BME280;49541;57.840;12.306;2023-02-11T06:05:11;100234.91;;;6.72;90.63
63405;BME280;49541;57.840;12.306;2023-02-11T06:10:11;100250.53;;;6.64;90.77
63405;BME280;49541;57.840;12.306;2023-02-11T06:15:12;100237.91;;;6.68;90.48
63405;BME280;49541;57.840;12.306;2023-02-11T06:20:12;100250.91;;;6.71;90.31
63405;BME280;49541;57.840;12.306;2023-02-11T06:25:12;100256.91;;;6.62;90.70
63405;BME280;49541;57.840;12.306;2023-02-11T06:30:13;100275.66;;;6.59;90.46
63405;BME280;49541;57.840;12.306;2023-02-11T06:35:13;100267.66;;;6.83;89.11
63405;BME280;49541;57.840;12.306;2023-02-11T06:40:14;100277.53;;;6.92;87.95
63405;BME280;49541;57.840;12.306;2023-02-11T06:45:14;100289.31;;;6.88;87.70
63405;BME280;49541;57.840;12.306;2023-02-11T06:50:14;100305.34;;;6.86;87.69
63405;BME280;49541;57.840;12.306;2023-02-11T06:55:14;100313.50;;;6.94;86.95
63405;BME280;49541;57.840;12.306;2023-02-11T07:00:15;100329.56;;;7.04;86.04
63405;BME280;49541;57.840;12.306;2023-02-11T07:05:15;100347.53;;;6.88;86.86
63405;BME280;49541;57.840;12.306;2023-02-11T07:10:15;100368.47;;;7.15;85.69
63405;BME280;49541;57.840;12.306;2023-02-11T07:15:15;100381.59;;;7.28;83.87
63405;BME280;49541;57.840;12.306;2023-02-11T07:20:15;100392.94;;;7.30;83.41
63405;BME280;49541;57.840;12.306;2023-02-11T07:25:16;100392.84;;;7.43;82.15
63405;BME280;49541;57.840;12.306;2023-02-11T07:30:16;100414.28;;;7.51;81.44
63405;BME280;49541;57.840;12.306;2023-02-11T07:35:16;100429.28;;;7.74;80.17
63405;BME280;49541;57.840;12.306;2023-02-11T07:40:16;100434.91;;;7.70;80.06
63405;BME280;49541;57.840;12.306;2023-02-11T07:45:17;100461.63;;;7.55;80.08
63405;BME280;49541;57.840;12.306;2023-02-11T07:50:17;100469.94;;;7.51;80.11
63405;BME280;49541;57.840;12.306;2023-02-11T07:55:17;100485.22;;;7.58;80.24
63405;BME280;49541;57.840;12.306;2023-02-11T08:00:17;100484.38;;;7.58;79.93
63405;BME280;49541;57.840;12.306;2023-02-11T08:05:18;100514.97;;;8.09;77.14
63405;BME280;49541;57.840;12.306;2023-02-11T08:10:18;100532.66;;;7.86;78.40
63405;BME280;49541;57.840;12.306;2023-02-11T08:15:18;100547.13;;;8.04;76.91
63405;BME280;49541;57.840;12.306;2023-02-11T08:20:19;100579.09;;;8.14;76.48
63405;BME280;49541;57.840;12.306;2023-02-11T08:25:19;100593.59;;;8.32;75.81
63405;BME280;49541;57.840;12.306;2023-02-11T08:30:19;100591.84;;;8.44;75.24
63405;BME280;49541;57.840;12.306;2023-02-11T08:35:20;100609.22;;;8.71;73.99
63405;BME280;49541;57.840;12.306;2023-02-11T08:40:20;100632.16;;;8.94;72.10
63405;BME280;49541;57.840;12.306;2023-02-11T08:45:20;100645.06;;;8.99;72.43
63405;BME280;49541;57.840;12.306;2023-02-11T08:50:20;100658.72;;;9.17;71.62
63405;BME280;49541;57.840;12.306;2023-02-11T08:55:21;100683.44;;;9.17;71.34
63405;BME280;49541;57.840;12.306;2023-02-11T09:00:21;100685.97;;;9.30;70.35
63405;BME280;49541;57.840;12.306;2023-02-11T09:05:21;100698.78;;;9.25;70.45
63405;BME280;49541;57.840;12.306;2023-02-11T09:10:22;100702.25;;;9.59;69.58
63405;BME280;49541;57.840;12.306;2023-02-11T09:15:22;100723.03;;;9.43;69.47
63405;BME280;49541;57.840;12.306;2023-02-11T09:20:22;100740.44;;;9.47;69.41
63405;BME280;49541;57.840;12.306;2023-02-11T09:25:23;100747.50;;;9.80;68.07
63405;BME280;49541;57.840;12.306;2023-02-11T09:30:23;100770.94;;;9.87;67.59
63405;BME280;49541;57.840;12.306;2023-02-11T09:35:23;100782.22;;;9.79;66.23
63405;BME280;49541;57.840;12.306;2023-02-11T09:40:23;100793.94;;;9.88;65.73
63405;BME280;49541;57.840;12.306;2023-02-11T09:45:25;100803.34;;;9.80;66.12
63405;BME280;49541;57.840;12.306;2023-02-11T09:50:28;100815.56;;;9.83;66.47
63405;BME280;49541;57.840;12.306;2023-02-11T09:55:37;100824.50;;;9.82;65.47
63405;BME280;49541;57.840;12.306;2023-02-11T10:00:39;100830.66;;;9.82;65.01
63405;BME280;49541;57.840;12.306;2023-02-11T10:10:57;100874.75;;;10.19;64.14
63405;BME280;49541;57.840;12.306;2023-02-11T10:21:13;100906.91;;;10.50;61.15
63405;BME280;49541;57.840;12.306;2023-02-11T10:26:17;100898.81;;;10.40;62.32
63405;BME280;49541;57.840;12.306;2023-02-11T10:31:25;100908.00;;;10.47;61.30
63405;BME280;49541;57.840;12.306;2023-02-11T10:36:33;100907.56;;;10.74;61.27
63405;BME280;49541;57.840;12.306;2023-02-11T10:41:35;100919.56;;;11.01;59.65
63405;BME280;49541;57.840;12.306;2023-02-11T10:46:37;100941.03;;;11.20;58.53
63405;BME280;49541;57.840;12.306;2023-02-11T10:51:39;100952.41;;;11.43;57.64
63405;BME280;49541;57.840;12.306;2023-02-11T10:56:48;100962.03;;;11.35;56.55
63405;BME280;49541;57.840;12.306;2023-02-11T11:01:50;100974.41;;;11.99;55.47
63405;BME280;49541;57.840;12.306;2023-02-11T11:06:51;100978.03;;;11.98;55.76
63405;BME280;49541;57.840;12.306;2023-02-11T11:11:51;101004.78;;;11.44;55.93
63405;BME280;49541;57.840;12.306;2023-02-11T11:16:52;100990.88;;;11.62;56.35
63405;BME280;49541;57.840;12.306;2023-02-11T11:21:53;101011.56;;;11.91;54.61
63405;BME280;49541;57.840;12.306;2023-02-11T11:26:55;101017.09;;;11.99;55.80
63405;BME280;49541;57.840;12.306;2023-02-11T11:31:57;101026.72;;;12.11;54.40
63405;BME280;49541;57.840;12.306;2023-02-11T11:36:59;101034.06;;;11.56;56.21
63405;BME280;49541;57.840;12.306;2023-02-11T11:42:00;101051.88;;;11.55;57.42
63405;BME280;49541;57.840;12.306;2023-02-11T11:57:11;101102.88;;;11.62;56.78
63405;BME280;49541;57.840;12.306;2023-02-11T12:23:24;101152.09;;;13.45;53.21
63405;BME280;49541;57.840;12.306;2023-02-11T12:28:43;101161.81;;;13.56;50.25
63405;BME280;49541;57.840;12.306;2023-02-11T12:44:19;101185.94;;;13.85;49.94
63405;BME280;49541;57.840;12.306;2023-02-11T12:49:32;101188.16;;;14.58;48.68
63405;BME280;49541;57.840;12.306;2023-02-11T13:05:03;101214.75;;;15.44;46.02
63405;BME280;49541;57.840;12.306;2023-02-11T13:10:22;101226.66;;;15.42;46.38
63405;BME280;49541;57.840;12.306;2023-02-11T13:15:24;101242.00;;;15.49;46.19
63405;BME280;49541;57.840;12.306;2023-02-11T13:20:34;101235.13;;;15.09;46.75
63405;BME280;49541;57.840;12.306;2023-02-11T13:30:43;101254.00;;;14.70;47.24
63405;BME280;49541;57.840;12.306;2023-02-11T13:36:11;101277.84;;;14.54;47.34
63405;BME280;49541;57.840;12.306;2023-02-11T13:41:17;101286.69;;;13.96;48.55
63405;BME280;49541;57.840;12.306;2023-02-11T13:46:19;101288.59;;;13.34;49.84
63405;BME280;49541;57.840;12.306;2023-02-11T13:51:36;101296.16;;;13.29;49.65
63405;BME280;49541;57.840;12.306;2023-02-11T13:56:39;101309.72;;;13.37;48.96
63405;BME280;49541;57.840;12.306;2023-02-11T14:01:41;101312.03;;;13.00;50.30
63405;BME280;49541;57.840;12.306;2023-02-11T14:07:25;101330.19;;;13.88;46.87
63405;BME280;49541;57.840;12.306;2023-02-11T14:12:59;101340.97;;;14.27;45.97
63405;BME280;49541;57.840;12.306;2023-02-11T14:18:34;101349.84;;;14.28;45.79
63405;BME280;49541;57.840;12.306;2023-02-11T14:23:24;101352.84;;;14.44;45.34
63405;BME280;49541;57.840;12.306;2023-02-11T14:28:26;101371.00;;;14.41;45.86
63405;BME280;49541;57.840;12.306;2023-02-11T14:33:45;101376.22;;;14.23;46.30
63405;BME280;49541;57.840;12.306;2023-02-11T14:44:11;101387.34;;;14.18;46.14
63405;BME280;49541;57.840;12.306;2023-02-11T14:49:17;101391.94;;;13.97;47.58
63405;BME280;49541;57.840;12.306;2023-02-11T14:54:21;101402.75;;;13.34;50.01
63405;BME280;49541;57.840;12.306;2023-02-11T14:59:24;101412.91;;;13.19;50.35
63405;BME280;49541;57.840;12.306;2023-02-11T15:04:25;101417.47;;;13.28;49.72
63405;BME280;49541;57.840;12.306;2023-02-11T15:09:31;101427.59;;;13.45;49.37
63405;BME280;49541;57.840;12.306;2023-02-11T15:14:33;101428.81;;;12.99;50.50
63405;BME280;49541;57.840;12.306;2023-02-11T15:19:37;101439.34;;;12.68;50.75
63405;BME280;49541;57.840;12.306;2023-02-11T15:24:40;101461.59;;;12.58;50.02
63405;BME280;49541;57.840;12.306;2023-02-11T15:29:44;101458.63;;;12.06;52.81
63405;BME280;49541;57.840;12.306;2023-02-11T15:34:44;101479.84;;;12.30;51.09
63405;BME280;49541;57.840;12.306;2023-02-11T15:39:45;101492.75;;;12.02;51.56
63405;BME280;49541;57.840;12.306;2023-02-11T15:44:45;101508.16;;;11.63;52.51
63405;BME280;49541;57.840;12.306;2023-02-11T15:49:46;101520.63;;;11.52;52.22
63405;BME280;49541;57.840;12.306;2023-02-11T15:54:46;101529.13;;;11.21;52.56
63405;BME280;49541;57.840;12.306;2023-02-11T15:59:51;101534.47;;;10.60;56.40
63405;BME280;49541;57.840;12.306;2023-02-11T16:04:59;101538.19;;;10.58;55.07
63405;BME280;49541;57.840;12.306;2023-02-11T16:09:59;101544.81;;;10.52;53.98
63405;BME280;49541;57.840;12.306;2023-02-11T16:15:26;101563.53;;;10.12;55.39
63405;BME280;49541;57.840;12.306;2023-02-11T16:20:20;101570.44;;;9.89;55.60
63405;BME280;49541;57.840;12.306;2023-02-11T16:25:20;101577.47;;;9.37;57.14
63405;BME280;49541;57.840;12.306;2023-02-11T16:30:28;101586.59;;;9.33;57.64
63405;BME280;49541;57.840;12.306;2023-02-11T16:35:31;101572.22;;;9.23;57.72
63405;BME280;49541;57.840;12.306;2023-02-11T16:40:32;101592.63;;;8.81;58.35
63405;BME280;49541;57.840;12.306;2023-02-11T16:45:33;101599.91;;;8.92;57.36
63405;BME280;49541;57.840;12.306;2023-02-11T16:50:35;101620.81;;;8.55;58.46
63405;BME280;49541;57.840;12.306;2023-02-11T16:55:36;101625.28;;;8.10;59.72
63405;BME280;49541;57.840;12.306;2023-02-11T17:00:36;101636.22;;;7.89;60.33
63405;BME280;49541;57.840;12.306;2023-02-11T17:05:36;101632.97;;;7.84;61.04
63405;BME280;49541;57.840;12.306;2023-02-11T17:10:36;101650.81;;;7.66;61.05
63405;BME280;49541;57.840;12.306;2023-02-11T17:15:37;101667.25;;;7.41;61.47
63405;BME280;49541;57.840;12.306;2023-02-11T17:20:37;101671.78;;;7.39;61.44
63405;BME280;49541;57.840;12.306;2023-02-11T17:25:37;101686.31;;;7.16;62.77
63405;BME280;49541;57.840;12.306;2023-02-11T17:30:38;101696.69;;;7.21;63.35
63405;BME280;49541;57.840;12.306;2023-02-11T17:35:39;101699.06;;;7.25;62.25
63405;BME280;49541;57.840;12.306;2023-02-11T17:40:39;101699.66;;;6.81;63.12
63405;BME280;49541;57.840;12.306;2023-02-11T17:45:40;101702.25;;;6.98;63.56
63405;BME280;49541;57.840;12.306;2023-02-11T17:50:40;101700.91;;;6.91;64.08
63405;BME280;49541;57.840;12.306;2023-02-11T17:55:40;101703.28;;;6.80;64.43
63405;BME280;49541;57.840;12.306;2023-02-11T18:00:41;101710.84;;;6.53;66.18
63405;BME280;49541;57.840;12.306;2023-02-11T18:05:42;101722.81;;;6.60;66.38
63405;BME280;49541;57.840;12.306;2023-02-11T18:10:42;101743.47;;;6.53;65.73
63405;BME280;49541;57.840;12.306;2023-02-11T18:15:42;101735.22;;;6.42;66.01
63405;BME280;49541;57.840;12.306;2023-02-11T18:20:42;101733.53;;;6.41;65.57
63405;BME280;49541;57.840;12.306;2023-02-11T18:25:43;101740.44;;;6.09;65.76
63405;BME280;49541;57.840;12.306;2023-02-11T18:30:44;101740.22;;;6.13;65.50
63405;BME280;49541;57.840;12.306;2023-02-11T18:35:44;101736.91;;;6.08;64.96
63405;BME280;49541;57.840;12.306;2023-02-11T18:40:44;101737.84;;;5.71;65.74
63405;BME280;49541;57.840;12.306;2023-02-11T18:45:49;101749.16;;;5.37;66.10
63405;BME280;49541;57.840;12.306;2023-02-11T18:50:49;101755.09;;;5.23;66.52
63405;BME280;49541;57.840;12.306;2023-02-11T18:55:50;101759.88;;;5.33;66.09
63405;BME280;49541;57.840;12.306;2023-02-11T19:00:50;101756.63;;;5.08;66.26
63405;BME280;49541;57.840;12.306;2023-02-11T19:05:50;101774.34;;;4.85;67.04
63405;BME280;49541;57.840;12.306;2023-02-11T19:10:51;101768.25;;;4.83;67.54
63405;BME280;49541;57.840;12.306;2023-02-11T19:15:51;101769.16;;;5.03;67.33
63405;BME280;49541;57.840;12.306;2023-02-11T19:20:51;101773.75;;;4.99;66.66
63405;BME280;49541;57.840;12.306;2023-02-11T19:25:52;101779.19;;;4.76;66.64
63405;BME280;49541;57.840;12.306;2023-02-11T19:30:52;101780.09;;;4.54;67.17
63405;BME280;49541;57.840;12.306;2023-02-11T19:35:52;101783.44;;;4.58;67.22
63405;BME280;49541;57.840;12.306;2023-02-11T19:40:55;101787.03;;;4.57;67.79
63405;BME280;49541;57.840;12.306;2023-02-11T19:45:56;101798.19;;;3.99;70.85
63405;BME280;49541;57.840;12.306;2023-02-11T19:50:57;101812.97;;;4.03;71.15
63405;BME280;49541;57.840;12.306;2023-02-11T19:55:59;101819.22;;;4.65;69.47
63405;BME280;49541;57.840;12.306;2023-02-11T20:01:10;101815.97;;;4.16;70.10
63405;BME280;49541;57.840;12.306;2023-02-11T20:06:12;101826.13;;;4.25;71.12
63405;BME280;49541;57.840;12.306;2023-02-11T20:11:14;101816.44;;;4.47;69.16
63405;BME280;49541;57.840;12.306;2023-02-11T20:16:15;101814.41;;;4.32;69.60
63405;BME280;49541;57.840;12.306;2023-02-11T20:21:17;101819.91;;;3.36;73.13
63405;BME280;49541;57.840;12.306;2023-02-11T20:26:21;101818.47;;;3.51;75.17
63405;BME280;49541;57.840;12.306;2023-02-11T20:31:22;101846.47;;;3.99;72.41
63405;BME280;49541;57.840;12.306;2023-02-11T20:36:23;101867.25;;;3.38;73.83
63405;BME280;49541;57.840;12.306;2023-02-11T20:41:25;101871.78;;;3.09;76.58
63405;BME280;49541;57.840;12.306;2023-02-11T20:46:28;101889.78;;;3.21;75.20
63405;BME280;49541;57.840;12.306;2023-02-11T20:51:29;101898.22;;;2.79;76.60
63405;BME280;49541;57.840;12.306;2023-02-11T20:56:31;101893.97;;;3.02;77.15
63405;BME280;49541;57.840;12.306;2023-02-11T21:01:36;101888.91;;;2.96;78.29
63405;BME280;49541;57.840;12.306;2023-02-11T21:06:37;101891.56;;;2.94;78.92
63405;BME280;49541;57.840;12.306;2023-02-11T21:11:37;101889.44;;;3.31;76.36
63405;BME280;49541;57.840;12.306;2023-02-11T21:16:38;101883.97;;;2.86;78.41
63405;BME280;49541;57.840;12.306;2023-02-11T21:21:38;101887.03;;;2.73;80.59
63405;BME280;49541;57.840;12.306;2023-02-11T21:26:39;101895.72;;;2.50;83.62
63405;BME280;49541;57.840;12.306;2023-02-11T21:31:39;101921.38;;;3.21;80.99
63405;BME280;49541;57.840;12.306;2023-02-11T21:36:39;101903.19;;;3.39;79.49
63405;BME280;49541;57.840;12.306;2023-02-11T21:41:39;101896.00;;;3.19;80.41
63405;BME280;49541;57.840;12.306;2023-02-11T21:46:40;101903.31;;;3.36;81.05
63405;BME280;49541;57.840;12.306;2023-02-11T21:51:40;101915.00;;;3.76;79.79
63405;BME280;49541;57.840;12.306;2023-02-11T21:56:40;101920.47;;;3.46;81.73
63405;BME280;49541;57.840;12.306;2023-02-11T22:01:40;101933.84;;;3.16;82.78
63405;BME280;49541;57.840;12.306;2023-02-11T22:06:40;101928.34;;;2.97;83.36
63405;BME280;49541;57.840;12.306;2023-02-11T22:11:41;101943.81;;;3.06;83.03
63405;BME280;49541;57.840;12.306;2023-02-11T22:16:42;101940.25;;;3.07;81.40
63405;BME280;49541;57.840;12.306;2023-02-11T22:21:43;101948.13;;;3.07;80.74
63405;BME280;49541;57.840;12.306;2023-02-11T22:26:43;101950.34;;;2.95;80.58
63405;BME280;49541;57.840;12.306;2023-02-11T22:31:43;101965.75;;;2.79;80.13
63405;BME280;49541;57.840;12.306;2023-02-11T22:36:43;101961.38;;;3.06;77.90
63405;BME280;49541;57.840;12.306;2023-02-11T22:41:45;101960.75;;;2.98;77.89
63405;BME280;49541;57.840;12.306;2023-02-11T22:46:45;101957.38;;;2.94;78.01
63405;BME280;49541;57.840;12.306;2023-02-11T22:51:46;101971.31;;;3.73;74.54
63405;BME280;49541;57.840;12.306;2023-02-11T22:56:49;101967.75;;;3.74;75.78
63405;BME280;49541;57.840;12.306;2023-02-11T23:01:49;101962.44;;;3.27;77.55
63405;BME280;49541;57.840;12.306;2023-02-11T23:06:49;101955.50;;;2.98;79.68
63405;BME280;49541;57.840;12.306;2023-02-11T23:11:50;101952.91;;;3.23;80.98
63405;BME280;49541;57.840;12.306;2023-02-11T23:16:53;101948.91;;;3.85;79.66
63405;BME280;49541;57.840;12.306;2023-02-11T23:21:53;101946.63;;;3.99;80.91
63405;BME280;49541;57.840;12.306;2023-02-11T23:26:53;101947.81;;;3.67;81.46
63405;BME280;49541;57.840;12.306;2023-02-11T23:31:54;101954.28;;;3.83;81.49
63405;BME280;49541;57.840;12.306;2023-02-11T23:36:54;101953.97;;;3.91;80.60
63405;BME280;49541;57.840;12.306;2023-02-11T23:41:55;101950.13;;;4.00;80.63
63405;BME280;49541;57.840;12.306;2023-02-11T23:46:57;101958.97;;;3.50;83.14
63405;BME280;49541;57.840;12.306;2023-02-11T23:51:58;101974.94;;;3.45;83.67
63405;BME280;49541;57.840;12.306;2023-02-11T23:56:58;101973.59;;;3.34;84.61
